sensor_id;sensor_type;location;lat;lon;timestamp;temperature;humidity
33903;DHT22;20194;50.950;5.346;2022-08-14T00:01:49;24.80;1.00
33903;DHT22;20194;50.950;5.346;2022-08-14T00:04:15;24.80;1.00
33903;DHT22;20194;50.950;5.346;2022-08-14T00:06:41;24.80;1.00
33903;DHT22;20194;50.950;5.346;2022-08-14T00:09:07;24.80;99.90
33903;DHT22;20194;50.950;5.346;2022-08-14T00:11:32;24.80;1.00
33903;DHT22;20194;50.950;5.346;2022-08-14T00:14:00;24.90;1.00
33903;DHT22;20194;50.950;5.346;2022-08-14T00:16:26;24.80;1.00
33903;DHT22;20194;50.950;5.346;2022-08-14T00:18:51;24.80;1.00
33903;DHT22;20194;50.950;5.346;2022-08-14T00:21:17;24.60;99.90
33903;DHT22;20194;50.950;5.346;2022-08-14T00:23:43;24.60;99.90
33903;DHT22;20194;50.950;5.346;2022-08-14T00:26:08;24.60;99.90
33903;DHT22;20194;50.950;5.346;2022-08-14T00:28:34;24.70;99.90
33903;DHT22;20194;50.950;5.346;2022-08-14T00:31:00;24.50;99.90
33903;DHT22;20194;50.950;5.346;2022-08-14T00:33:27;24.50;99.90
33903;DHT22;20194;50.950;5.346;2022-08-14T00:35:53;24.50;99.90
33903;DHT22;20194;50.950;5.346;2022-08-14T00:38:19;24.40;99.90
33903;DHT22;20194;50.950;5.346;2022-08-14T00:40:46;24.40;1.00
33903;DHT22;20194;50.950;5.346;2022-08-14T00:43:12;24.30;1.00
33903;DHT22;20194;50.950;5.346;2022-08-14T00:45:40;24.30;99.90
33903;DHT22;20194;50.950;5.346;2022-08-14T00:48:06;24.10;99.90
33903;DHT22;20194;50.950;5.346;2022-08-14T00:50:32;24.10;1.00
33903;DHT22;20194;50.950;5.346;2022-08-14T00:52:59;24.10;1.00
33903;DHT22;20194;50.950;5.346;2022-08-14T00:55:26;24.10;99.90
33903;DHT22;20194;50.950;5.346;2022-08-14T00:57:57;24.10;99.90
33903;DHT22;20194;50.950;5.346;2022-08-14T01:00:41;24.10;99.90
33903;DHT22;20194;50.950;5.346;2022-08-14T01:03:08;24.00;99.90
33903;DHT22;20194;50.950;5.346;2022-08-14T01:05:34;23.90;1.00
33903;DHT22;20194;50.950;5.346;2022-08-14T01:08:00;24.00;1.00
33903;DHT22;20194;50.950;5.346;2022-08-14T01:10:28;23.80;99.90
33903;DHT22;20194;50.950;5.346;2022-08-14T01:13:14;23.70;99.90
33903;DHT22;20194;50.950;5.346;2022-08-14T01:15:45;23.80;1.00
33903;DHT22;20194;50.950;5.346;2022-08-14T01:18:12;23.80;1.00
33903;DHT22;20194;50.950;5.346;2022-08-14T01:20:57;23.90;1.00
33903;DHT22;20194;50.950;5.346;2022-08-14T01:23:33;23.80;1.00
33903;DHT22;20194;50.950;5.346;2022-08-14T01:25:59;23.70;1.00
33903;DHT22;20194;50.950;5.346;2022-08-14T01:28:25;23.50;99.90
33903;DHT22;20194;50.950;5.346;2022-08-14T01:30:52;23.10;1.00
33903;DHT22;20194;50.950;5.346;2022-08-14T01:33:26;23.20;1.00
33903;DHT22;20194;50.950;5.346;2022-08-14T01:35:58;23.10;1.00
33903;DHT22;20194;50.950;5.346;2022-08-14T01:38:27;23.10;1.00
33903;DHT22;20194;50.950;5.346;2022-08-14T01:41:11;23.10;1.00
33903;DHT22;20194;50.950;5.346;2022-08-14T01:46:15;23.30;99.90
33903;DHT22;20194;50.950;5.346;2022-08-14T01:48:41;23.30;99.90
33903;DHT22;20194;50.950;5.346;2022-08-14T01:51:09;23.40;99.90
33903;DHT22;20194;50.950;5.346;2022-08-14T01:53:37;23.40;99.90
33903;DHT22;20194;50.950;5.346;2022-08-14T01:56:04;23.30;1.00
33903;DHT22;20194;50.950;5.346;2022-08-14T01:58:31;23.10;1.00
33903;DHT22;20194;50.950;5.346;2022-08-14T02:00:58;23.10;1.00
33903;DHT22;20194;50.950;5.346;2022-08-14T02:03:27;23.20;1.00
33903;DHT22;20194;50.950;5.346;2022-08-14T02:05:58;23.30;1.00
33903;DHT22;20194;50.950;5.346;2022-08-14T02:08:27;23.20;1.00
33903;DHT22;20194;50.950;5.346;2022-08-14T02:10:56;23.10;27.40
33903;DHT22;20194;50.950;5.346;2022-08-14T02:13:45;23.00;99.90
33903;DHT22;20194;50.950;5.346;2022-08-14T02:16:22;22.90;99.90
33903;DHT22;20194;50.950;5.346;2022-08-14T02:18:51;22.90;1.00
33903;DHT22;20194;50.950;5.346;2022-08-14T02:21:17;22.70;1.00
33903;DHT22;20194;50.950;5.346;2022-08-14T02:23:49;22.70;1.00
33903;DHT22;20194;50.950;5.346;2022-08-14T02:26:21;22.70;1.00
33903;DHT22;20194;50.950;5.346;2022-08-14T02:28:49;22.60;1.00
33903;DHT22;20194;50.950;5.346;2022-08-14T02:31:15;22.70;1.00
33903;DHT22;20194;50.950;5.346;2022-08-14T02:33:42;22.80;1.00
33903;DHT22;20194;50.950;5.346;2022-08-14T02:36:09;22.70;99.90
33903;DHT22;20194;50.950;5.346;2022-08-14T02:38:36;22.60;99.90
33903;DHT22;20194;50.950;5.346;2022-08-14T02:41:04;22.70;99.90
33903;DHT22;20194;50.950;5.346;2022-08-14T02:43:33;22.80;99.90
33903;DHT22;20194;50.950;5.346;2022-08-14T02:45:59;22.80;99.90
33903;DHT22;20194;50.950;5.346;2022-08-14T02:48:24;22.80;99.90
33903;DHT22;20194;50.950;5.346;2022-08-14T02:50:57;22.80;99.90
33903;DHT22;20194;50.950;5.346;2022-08-14T02:53:23;22.70;98.90
33903;DHT22;20194;50.950;5.346;2022-08-14T02:55:48;22.70;94.20
33903;DHT22;20194;50.950;5.346;2022-08-14T02:58:15;22.80;99.90
33903;DHT22;20194;50.950;5.346;2022-08-14T03:00:41;22.90;71.90
33903;DHT22;20194;50.950;5.346;2022-08-14T03:03:07;22.80;99.90
33903;DHT22;20194;50.950;5.346;2022-08-14T03:05:33;22.70;99.90
33903;DHT22;20194;50.950;5.346;2022-08-14T03:08:08;22.70;99.90
33903;DHT22;20194;50.950;5.346;2022-08-14T03:10:35;22.60;99.90
33903;DHT22;20194;50.950;5.346;2022-08-14T03:13:01;22.60;99.90
33903;DHT22;20194;50.950;5.346;2022-08-14T03:15:33;22.60;33.70
33903;DHT22;20194;50.950;5.346;2022-08-14T03:18:08;22.60;23.20
33903;DHT22;20194;50.950;5.346;2022-08-14T03:20:33;22.50;1.00
33903;DHT22;20194;50.950;5.346;2022-08-14T03:23:00;22.40;1.00
33903;DHT22;20194;50.950;5.346;2022-08-14T03:25:27;22.40;4.90
33903;DHT22;20194;50.950;5.346;2022-08-14T03:28:00;22.40;1.00
33903;DHT22;20194;50.950;5.346;2022-08-14T03:30:29;22.40;1.00
33903;DHT22;20194;50.950;5.346;2022-08-14T03:32:56;22.50;1.00
33903;DHT22;20194;50.950;5.346;2022-08-14T03:35:22;22.50;46.00
33903;DHT22;20194;50.950;5.346;2022-08-14T03:37:48;22.60;17.50
33903;DHT22;20194;50.950;5.346;2022-08-14T03:40:20;22.60;1.00
33903;DHT22;20194;50.950;5.346;2022-08-14T03:42:47;22.60;4.70
33903;DHT22;20194;50.950;5.346;2022-08-14T03:45:15;22.50;91.70
33903;DHT22;20194;50.950;5.346;2022-08-14T03:47:41;22.50;99.90
33903;DHT22;20194;50.950;5.346;2022-08-14T03:50:09;22.50;99.90
33903;DHT22;20194;50.950;5.346;2022-08-14T03:52:39;22.30;99.90
33903;DHT22;20194;50.950;5.346;2022-08-14T03:55:09;22.20;99.90
33903;DHT22;20194;50.950;5.346;2022-08-14T03:57:36;22.10;1.00
33903;DHT22;20194;50.950;5.346;2022-08-14T04:00:08;22.10;1.00
33903;DHT22;20194;50.950;5.346;2022-08-14T04:02:36;21.90;1.00
33903;DHT22;20194;50.950;5.346;2022-08-14T04:05:04;21.80;1.00
33903;DHT22;20194;50.950;5.346;2022-08-14T04:07:31;21.90;1.00
33903;DHT22;20194;50.950;5.346;2022-08-14T04:09:57;21.90;1.00
33903;DHT22;20194;50.950;5.346;2022-08-14T04:12:23;21.90;1.00
33903;DHT22;20194;50.950;5.346;2022-08-14T04:14:48;22.00;1.00
33903;DHT22;20194;50.950;5.346;2022-08-14T04:17:17;21.90;99.90
33903;DHT22;20194;50.950;5.346;2022-08-14T04:19:43;21.90;99.90
33903;DHT22;20194;50.950;5.346;2022-08-14T04:22:10;21.90;99.90
33903;DHT22;20194;50.950;5.346;2022-08-14T04:24:35;21.80;99.90
33903;DHT22;20194;50.950;5.346;2022-08-14T04:27:02;22.00;99.90
33903;DHT22;20194;50.950;5.346;2022-08-14T04:29:28;22.00;99.90
33903;DHT22;20194;50.950;5.346;2022-08-14T04:31:53;22.10;54.00
33903;DHT22;20194;50.950;5.346;2022-08-14T04:34:19;22.00;90.50
33903;DHT22;20194;50.950;5.346;2022-08-14T04:36:45;22.10;1.00
33903;DHT22;20194;50.950;5.346;2022-08-14T04:39:29;22.10;99.90
33903;DHT22;20194;50.950;5.346;2022-08-14T04:42:13;22.10;99.90
33903;DHT22;20194;50.950;5.346;2022-08-14T04:44:57;22.10;99.90
33903;DHT22;20194;50.950;5.346;2022-08-14T04:47:24;22.10;99.90
33903;DHT22;20194;50.950;5.346;2022-08-14T04:50:08;22.00;99.90
33903;DHT22;20194;50.950;5.346;2022-08-14T04:52:34;22.00;99.90
33903;DHT22;20194;50.950;5.346;2022-08-14T04:54:59;22.00;99.90
33903;DHT22;20194;50.950;5.346;2022-08-14T04:57:25;22.00;99.90
33903;DHT22;20194;50.950;5.346;2022-08-14T04:59:51;22.10;99.90
33903;DHT22;20194;50.950;5.346;2022-08-14T05:02:19;22.00;99.90
33903;DHT22;20194;50.950;5.346;2022-08-14T05:04:48;21.90;99.90
33903;DHT22;20194;50.950;5.346;2022-08-14T05:07:14;21.90;99.90
33903;DHT22;20194;50.950;5.346;2022-08-14T05:09:40;21.90;99.90
33903;DHT22;20194;50.950;5.346;2022-08-14T05:12:06;21.80;99.90
33903;DHT22;20194;50.950;5.346;2022-08-14T05:14:32;21.80;99.90
33903;DHT22;20194;50.950;5.346;2022-08-14T05:16:58;21.90;99.90
33903;DHT22;20194;50.950;5.346;2022-08-14T05:19:23;21.90;99.90
33903;DHT22;20194;50.950;5.346;2022-08-14T05:21:53;22.00;99.90
33903;DHT22;20194;50.950;5.346;2022-08-14T05:24:23;21.90;99.90
33903;DHT22;20194;50.950;5.346;2022-08-14T05:26:48;22.00;99.90
33903;DHT22;20194;50.950;5.346;2022-08-14T05:29:14;22.00;99.90
33903;DHT22;20194;50.950;5.346;2022-08-14T05:31:41;22.00;99.90
33903;DHT22;20194;50.950;5.346;2022-08-14T05:34:07;21.80;99.90
33903;DHT22;20194;50.950;5.346;2022-08-14T05:36:34;21.40;1.00
33903;DHT22;20194;50.950;5.346;2022-08-14T05:39:00;21.60;1.00
33903;DHT22;20194;50.950;5.346;2022-08-14T05:41:26;21.70;1.00
33903;DHT22;20194;50.950;5.346;2022-08-14T05:43:51;21.70;1.00
33903;DHT22;20194;50.950;5.346;2022-08-14T05:46:19;21.80;1.00
33903;DHT22;20194;50.950;5.346;2022-08-14T05:48:49;21.90;1.00
33903;DHT22;20194;50.950;5.346;2022-08-14T05:51:15;21.90;99.90
33903;DHT22;20194;50.950;5.346;2022-08-14T05:53:41;22.10;1.00
33903;DHT22;20194;50.950;5.346;2022-08-14T05:56:06;22.10;1.00
33903;DHT22;20194;50.950;5.346;2022-08-14T05:58:32;22.10;1.00
33903;DHT22;20194;50.950;5.346;2022-08-14T06:00:58;22.10;1.00
33903;DHT22;20194;50.950;5.346;2022-08-14T06:03:24;22.00;99.90
33903;DHT22;20194;50.950;5.346;2022-08-14T06:05:52;22.10;99.90
33903;DHT22;20194;50.950;5.346;2022-08-14T06:08:29;22.00;1.00
33903;DHT22;20194;50.950;5.346;2022-08-14T06:10:58;22.10;99.90
33903;DHT22;20194;50.950;5.346;2022-08-14T06:13:39;22.10;99.90
33903;DHT22;20194;50.950;5.346;2022-08-14T06:16:06;22.10;99.90
33903;DHT22;20194;50.950;5.346;2022-08-14T06:18:32;21.90;99.90
33903;DHT22;20194;50.950;5.346;2022-08-14T06:20:58;22.10;99.90
33903;DHT22;20194;50.950;5.346;2022-08-14T06:23:24;22.20;99.90
33903;DHT22;20194;50.950;5.346;2022-08-14T06:25:50;22.50;1.00
33903;DHT22;20194;50.950;5.346;2022-08-14T06:28:17;22.90;1.00
33903;DHT22;20194;50.950;5.346;2022-08-14T06:30:43;23.20;1.00
33903;DHT22;20194;50.950;5.346;2022-08-14T06:33:08;23.50;1.00
33903;DHT22;20194;50.950;5.346;2022-08-14T06:35:34;23.50;99.90
33903;DHT22;20194;50.950;5.346;2022-08-14T06:38:00;23.60;99.90
33903;DHT22;20194;50.950;5.346;2022-08-14T06:40:28;24.00;99.90
33903;DHT22;20194;50.950;5.346;2022-08-14T06:42:56;23.90;1.00
33903;DHT22;20194;50.950;5.346;2022-08-14T06:45:22;23.60;99.90
33903;DHT22;20194;50.950;5.346;2022-08-14T06:47:48;23.90;99.90
33903;DHT22;20194;50.950;5.346;2022-08-14T06:50:16;23.80;1.00
33903;DHT22;20194;50.950;5.346;2022-08-14T06:52:42;24.00;99.90
33903;DHT22;20194;50.950;5.346;2022-08-14T06:55:10;24.20;99.90
33903;DHT22;20194;50.950;5.346;2022-08-14T06:57:43;24.60;99.90
33903;DHT22;20194;50.950;5.346;2022-08-14T07:00:22;24.80;23.90
33903;DHT22;20194;50.950;5.346;2022-08-14T07:02:48;24.90;99.90
33903;DHT22;20194;50.950;5.346;2022-08-14T07:05:33;24.60;1.00
33903;DHT22;20194;50.950;5.346;2022-08-14T07:08:16;24.60;1.00
33903;DHT22;20194;50.950;5.346;2022-08-14T07:10:44;25.00;99.90
33903;DHT22;20194;50.950;5.346;2022-08-14T07:13:12;25.30;1.00
33903;DHT22;20194;50.950;5.346;2022-08-14T07:15:39;24.90;18.80
33903;DHT22;20194;50.950;5.346;2022-08-14T07:18:07;24.70;99.90
33903;DHT22;20194;50.950;5.346;2022-08-14T07:20:33;24.80;99.90
33903;DHT22;20194;50.950;5.346;2022-08-14T07:23:04;25.10;99.90
33903;DHT22;20194;50.950;5.346;2022-08-14T07:25:31;25.20;20.10
33903;DHT22;20194;50.950;5.346;2022-08-14T07:27:56;25.60;1.00
33903;DHT22;20194;50.950;5.346;2022-08-14T07:30:22;26.00;99.90
33903;DHT22;20194;50.950;5.346;2022-08-14T07:32:48;26.20;96.90
33903;DHT22;20194;50.950;5.346;2022-08-14T07:35:14;26.40;48.60
33903;DHT22;20194;50.950;5.346;2022-08-14T07:37:40;26.20;1.00
33903;DHT22;20194;50.950;5.346;2022-08-14T07:40:06;26.20;1.00
33903;DHT22;20194;50.950;5.346;2022-08-14T07:42:32;26.60;1.00
33903;DHT22;20194;50.950;5.346;2022-08-14T07:44:59;26.30;1.00
33903;DHT22;20194;50.950;5.346;2022-08-14T07:47:25;26.80;99.90
33903;DHT22;20194;50.950;5.346;2022-08-14T07:50:01;27.10;99.90
33903;DHT22;20194;50.950;5.346;2022-08-14T07:52:27;27.80;99.90
33903;DHT22;20194;50.950;5.346;2022-08-14T07:54:54;28.20;99.90
33903;DHT22;20194;50.950;5.346;2022-08-14T07:57:20;28.00;1.00
33903;DHT22;20194;50.950;5.346;2022-08-14T07:59:46;28.40;1.00
33903;DHT22;20194;50.950;5.346;2022-08-14T08:02:15;28.20;1.00
33903;DHT22;20194;50.950;5.346;2022-08-14T08:04:43;28.00;1.00
33903;DHT22;20194;50.950;5.346;2022-08-14T08:07:11;27.30;1.00
33903;DHT22;20194;50.950;5.346;2022-08-14T08:09:43;27.50;1.00
33903;DHT22;20194;50.950;5.346;2022-08-14T08:12:13;27.90;1.00
33903;DHT22;20194;50.950;5.346;2022-08-14T08:14:40;28.40;1.00
33903;DHT22;20194;50.950;5.346;2022-08-14T08:17:08;28.50;1.00
33903;DHT22;20194;50.950;5.346;2022-08-14T08:19:34;28.80;99.90
33903;DHT22;20194;50.950;5.346;2022-08-14T08:22:00;29.10;99.90
33903;DHT22;20194;50.950;5.346;2022-08-14T08:24:28;29.40;99.90
33903;DHT22;20194;50.950;5.346;2022-08-14T08:26:53;29.90;99.90
33903;DHT22;20194;50.950;5.346;2022-08-14T08:29:21;30.10;99.90
33903;DHT22;20194;50.950;5.346;2022-08-14T08:31:50;30.30;99.90
33903;DHT22;20194;50.950;5.346;2022-08-14T08:34:17;30.60;99.90
33903;DHT22;20194;50.950;5.346;2022-08-14T08:36:43;30.50;99.90
33903;DHT22;20194;50.950;5.346;2022-08-14T08:39:10;30.70;99.90
33903;DHT22;20194;50.950;5.346;2022-08-14T08:41:44;30.40;99.90
33903;DHT22;20194;50.950;5.346;2022-08-14T08:44:11;30.50;99.90
33903;DHT22;20194;50.950;5.346;2022-08-14T08:46:37;30.60;99.90
33903;DHT22;20194;50.950;5.346;2022-08-14T08:49:04;30.90;91.20
33903;DHT22;20194;50.950;5.346;2022-08-14T08:51:30;31.30;79.00
33903;DHT22;20194;50.950;5.346;2022-08-14T08:54:06;31.60;47.10
33903;DHT22;20194;50.950;5.346;2022-08-14T08:56:43;31.60;14.70
33903;DHT22;20194;50.950;5.346;2022-08-14T08:59:27;31.80;4.80
33903;DHT22;20194;50.950;5.346;2022-08-14T09:02:03;31.20;1.00
33903;DHT22;20194;50.950;5.346;2022-08-14T09:04:41;30.80;1.00
33903;DHT22;20194;50.950;5.346;2022-08-14T09:07:09;30.50;2.00
33903;DHT22;20194;50.950;5.346;2022-08-14T09:09:36;30.70;27.30
33903;DHT22;20194;50.950;5.346;2022-08-14T09:12:18;30.80;8.50
33903;DHT22;20194;50.950;5.346;2022-08-14T09:14:44;31.40;16.10
33903;DHT22;20194;50.950;5.346;2022-08-14T09:17:13;31.80;1.00
33903;DHT22;20194;50.950;5.346;2022-08-14T09:19:40;32.00;1.00
33903;DHT22;20194;50.950;5.346;2022-08-14T09:22:06;31.60;1.00
33903;DHT22;20194;50.950;5.346;2022-08-14T09:24:32;31.20;1.00
33903;DHT22;20194;50.950;5.346;2022-08-14T09:26:58;31.30;1.00
33903;DHT22;20194;50.950;5.346;2022-08-14T09:29:24;30.90;1.00
33903;DHT22;20194;50.950;5.346;2022-08-14T09:31:56;31.10;1.00
33903;DHT22;20194;50.950;5.346;2022-08-14T09:50:20;30.80;1.00
33903;DHT22;20194;50.950;5.346;2022-08-14T09:52:52;31.20;1.00
33903;DHT22;20194;50.950;5.346;2022-08-14T09:55:19;31.50;1.00
33903;DHT22;20194;50.950;5.346;2022-08-14T09:57:46;31.70;1.00
33903;DHT22;20194;50.950;5.346;2022-08-14T10:00:13;32.00;1.00
33903;DHT22;20194;50.950;5.346;2022-08-14T10:02:53;32.40;1.00
33903;DHT22;20194;50.950;5.346;2022-08-14T10:05:32;32.80;1.00
33903;DHT22;20194;50.950;5.346;2022-08-14T10:07:58;33.00;1.00
33903;DHT22;20194;50.950;5.346;2022-08-14T10:10:39;32.90;1.00
33903;DHT22;20194;50.950;5.346;2022-08-14T10:13:07;32.30;1.00
33903;DHT22;20194;50.950;5.346;2022-08-14T10:15:43;31.70;1.00
33903;DHT22;20194;50.950;5.346;2022-08-14T10:18:14;31.60;1.00
33903;DHT22;20194;50.950;5.346;2022-08-14T10:20:50;31.80;1.00
33903;DHT22;20194;50.950;5.346;2022-08-14T10:23:21;32.30;1.00
33903;DHT22;20194;50.950;5.346;2022-08-14T10:25:55;32.40;1.00
33903;DHT22;20194;50.950;5.346;2022-08-14T10:28:22;32.50;1.00
33903;DHT22;20194;50.950;5.346;2022-08-14T10:30:49;32.70;1.00
33903;DHT22;20194;50.950;5.346;2022-08-14T10:33:29;32.90;1.00
33903;DHT22;20194;50.950;5.346;2022-08-14T10:35:56;32.60;1.00
33903;DHT22;20194;50.950;5.346;2022-08-14T10:38:33;32.10;99.90
33903;DHT22;20194;50.950;5.346;2022-08-14T10:41:14;32.20;1.00
33903;DHT22;20194;50.950;5.346;2022-08-14T10:43:42;32.30;99.90
33903;DHT22;20194;50.950;5.346;2022-08-14T10:46:18;31.90;99.90
33903;DHT22;20194;50.950;5.346;2022-08-14T10:49:01;31.40;99.90
33903;DHT22;20194;50.950;5.346;2022-08-14T10:51:28;31.30;99.90
33903;DHT22;20194;50.950;5.346;2022-08-14T10:53:55;31.10;99.90
33903;DHT22;20194;50.950;5.346;2022-08-14T10:56:31;31.40;99.90
33903;DHT22;20194;50.950;5.346;2022-08-14T10:59:06;31.70;99.90
33903;DHT22;20194;50.950;5.346;2022-08-14T11:01:34;32.00;99.90
33903;DHT22;20194;50.950;5.346;2022-08-14T11:04:00;32.00;99.90
33903;DHT22;20194;50.950;5.346;2022-08-14T11:06:27;32.00;99.90
33903;DHT22;20194;50.950;5.346;2022-08-14T11:08:54;32.30;99.90
33903;DHT22;20194;50.950;5.346;2022-08-14T11:11:21;32.30;99.90
33903;DHT22;20194;50.950;5.346;2022-08-14T11:13:54;32.40;99.90
33903;DHT22;20194;50.950;5.346;2022-08-14T11:16:22;32.20;99.90
33903;DHT22;20194;50.950;5.346;2022-08-14T11:18:49;32.30;99.90
33903;DHT22;20194;50.950;5.346;2022-08-14T11:21:17;32.30;99.90
33903;DHT22;20194;50.950;5.346;2022-08-14T11:23:45;32.20;99.90
33903;DHT22;20194;50.950;5.346;2022-08-14T11:26:13;32.40;99.90
33903;DHT22;20194;50.950;5.346;2022-08-14T11:28:42;32.60;99.90
33903;DHT22;20194;50.950;5.346;2022-08-14T11:31:11;32.40;99.90
33903;DHT22;20194;50.950;5.346;2022-08-14T11:33:41;31.90;99.90
33903;DHT22;20194;50.950;5.346;2022-08-14T11:36:08;32.00;99.90
33903;DHT22;20194;50.950;5.346;2022-08-14T11:38:38;31.90;99.90
33903;DHT22;20194;50.950;5.346;2022-08-14T11:41:05;32.10;99.90
33903;DHT22;20194;50.950;5.346;2022-08-14T11:43:40;32.20;99.90
33903;DHT22;20194;50.950;5.346;2022-08-14T11:46:07;32.40;99.90
33903;DHT22;20194;50.950;5.346;2022-08-14T11:48:47;32.60;99.90
33903;DHT22;20194;50.950;5.346;2022-08-14T11:51:15;32.90;99.90
33903;DHT22;20194;50.950;5.346;2022-08-14T11:53:42;33.10;99.90
33903;DHT22;20194;50.950;5.346;2022-08-14T11:56:14;33.20;99.90
33903;DHT22;20194;50.950;5.346;2022-08-14T11:58:40;33.40;99.90
33903;DHT22;20194;50.950;5.346;2022-08-14T12:01:09;33.60;99.90
33903;DHT22;20194;50.950;5.346;2022-08-14T12:03:45;33.90;99.90
33903;DHT22;20194;50.950;5.346;2022-08-14T12:06:13;34.10;99.90
33903;DHT22;20194;50.950;5.346;2022-08-14T12:08:40;34.30;99.90
33903;DHT22;20194;50.950;5.346;2022-08-14T12:11:09;34.20;99.90
33903;DHT22;20194;50.950;5.346;2022-08-14T12:13:37;34.20;99.90
33903;DHT22;20194;50.950;5.346;2022-08-14T12:16:07;34.00;99.90
33903;DHT22;20194;50.950;5.346;2022-08-14T12:18:38;33.80;99.90
33903;DHT22;20194;50.950;5.346;2022-08-14T12:23:35;34.00;99.90
33903;DHT22;20194;50.950;5.346;2022-08-14T12:26:06;33.90;99.90
33903;DHT22;20194;50.950;5.346;2022-08-14T12:28:32;33.90;99.90
33903;DHT22;20194;50.950;5.346;2022-08-14T12:30:58;33.90;99.90
33903;DHT22;20194;50.950;5.346;2022-08-14T12:33:28;32.90;99.90
33903;DHT22;20194;50.950;5.346;2022-08-14T12:35:58;33.00;99.90
33903;DHT22;20194;50.950;5.346;2022-08-14T12:38:39;33.20;99.90
33903;DHT22;20194;50.950;5.346;2022-08-14T12:41:18;33.20;99.90
33903;DHT22;20194;50.950;5.346;2022-08-14T12:46:27;32.80;99.90
33903;DHT22;20194;50.950;5.346;2022-08-14T12:48:54;32.70;99.90
33903;DHT22;20194;50.950;5.346;2022-08-14T12:51:23;32.70;99.90
33903;DHT22;20194;50.950;5.346;2022-08-14T12:53:52;32.80;99.90
33903;DHT22;20194;50.950;5.346;2022-08-14T12:56:19;33.00;99.90
33903;DHT22;20194;50.950;5.346;2022-08-14T12:58:51;33.00;99.90
33903;DHT22;20194;50.950;5.346;2022-08-14T13:01:25;32.80;99.90
33903;DHT22;20194;50.950;5.346;2022-08-14T13:04:15;32.80;99.90
33903;DHT22;20194;50.950;5.346;2022-08-14T13:06:45;32.70;99.90
33903;DHT22;20194;50.950;5.346;2022-08-14T13:09:16;33.00;99.90
33903;DHT22;20194;50.950;5.346;2022-08-14T13:11:47;33.10;99.90
33903;DHT22;20194;50.950;5.346;2022-08-14T13:14:22;33.10;99.90
33903;DHT22;20194;50.950;5.346;2022-08-14T13:16:52;33.10;99.90
33903;DHT22;20194;50.950;5.346;2022-08-14T13:19:20;33.00;99.90
33903;DHT22;20194;50.950;5.346;2022-08-14T13:21:50;33.40;99.90
33903;DHT22;20194;50.950;5.346;2022-08-14T13:24:19;33.60;99.90
33903;DHT22;20194;50.950;5.346;2022-08-14T13:26:47;33.90;99.90
33903;DHT22;20194;50.950;5.346;2022-08-14T13:29:17;33.90;99.90
33903;DHT22;20194;50.950;5.346;2022-08-14T13:31:44;34.00;99.90
33903;DHT22;20194;50.950;5.346;2022-08-14T13:34:12;33.80;99.90
33903;DHT22;20194;50.950;5.346;2022-08-14T13:36:38;33.80;99.90
33903;DHT22;20194;50.950;5.346;2022-08-14T13:39:05;33.60;99.90
33903;DHT22;20194;50.950;5.346;2022-08-14T13:41:32;33.30;99.90
33903;DHT22;20194;50.950;5.346;2022-08-14T13:43:58;33.40;99.90
33903;DHT22;20194;50.950;5.346;2022-08-14T13:46:24;33.40;99.90
33903;DHT22;20194;50.950;5.346;2022-08-14T13:48:50;33.30;99.90
33903;DHT22;20194;50.950;5.346;2022-08-14T13:51:17;33.40;99.90
33903;DHT22;20194;50.950;5.346;2022-08-14T13:53:48;33.50;99.90
33903;DHT22;20194;50.950;5.346;2022-08-14T13:56:15;33.40;99.90
33903;DHT22;20194;50.950;5.346;2022-08-14T13:58:44;33.30;99.90
33903;DHT22;20194;50.950;5.346;2022-08-14T14:01:14;33.30;99.90
33903;DHT22;20194;50.950;5.346;2022-08-14T14:03:42;33.50;99.90
33903;DHT22;20194;50.950;5.346;2022-08-14T14:06:14;33.60;99.90
33903;DHT22;20194;50.950;5.346;2022-08-14T14:08:48;33.60;99.90
33903;DHT22;20194;50.950;5.346;2022-08-14T14:11:15;33.40;99.90
33903;DHT22;20194;50.950;5.346;2022-08-14T14:13:43;33.20;99.90
33903;DHT22;20194;50.950;5.346;2022-08-14T14:16:09;33.20;99.90
33903;DHT22;20194;50.950;5.346;2022-08-14T14:18:36;33.10;99.90
33903;DHT22;20194;50.950;5.346;2022-08-14T14:21:02;32.90;99.90
33903;DHT22;20194;50.950;5.346;2022-08-14T14:23:33;32.90;99.90
33903;DHT22;20194;50.950;5.346;2022-08-14T14:25:59;33.00;99.90
33903;DHT22;20194;50.950;5.346;2022-08-14T14:28:30;33.10;99.90
33903;DHT22;20194;50.950;5.346;2022-08-14T14:30:57;32.90;99.90
33903;DHT22;20194;50.950;5.346;2022-08-14T14:33:23;32.60;99.90
33903;DHT22;20194;50.950;5.346;2022-08-14T14:35:50;32.60;99.90
33903;DHT22;20194;50.950;5.346;2022-08-14T14:38:16;32.70;99.90
33903;DHT22;20194;50.950;5.346;2022-08-14T14:40:44;32.70;99.90
33903;DHT22;20194;50.950;5.346;2022-08-14T14:43:14;32.90;99.90
33903;DHT22;20194;50.950;5.346;2022-08-14T14:45:42;33.10;99.90
33903;DHT22;20194;50.950;5.346;2022-08-14T14:48:11;33.40;99.90
33903;DHT22;20194;50.950;5.346;2022-08-14T14:50:36;33.10;99.90
33903;DHT22;20194;50.950;5.346;2022-08-14T14:53:04;32.90;99.90
33903;DHT22;20194;50.950;5.346;2022-08-14T14:55:30;33.10;99.90
33903;DHT22;20194;50.950;5.346;2022-08-14T14:57:58;33.30;99.90
33903;DHT22;20194;50.950;5.346;2022-08-14T15:00:24;33.60;99.90
33903;DHT22;20194;50.950;5.346;2022-08-14T15:02:52;33.90;99.90
33903;DHT22;20194;50.950;5.346;2022-08-14T15:05:19;33.90;99.90
33903;DHT22;20194;50.950;5.346;2022-08-14T15:07:48;33.60;99.90
33903;DHT22;20194;50.950;5.346;2022-08-14T15:10:16;33.60;99.90
33903;DHT22;20194;50.950;5.346;2022-08-14T15:12:42;33.70;99.90
33903;DHT22;20194;50.950;5.346;2022-08-14T15:15:10;33.70;99.90
33903;DHT22;20194;50.950;5.346;2022-08-14T15:17:37;33.80;99.90
33903;DHT22;20194;50.950;5.346;2022-08-14T15:20:11;33.90;99.90
33903;DHT22;20194;50.950;5.346;2022-08-14T15:22:37;33.80;99.90
33903;DHT22;20194;50.950;5.346;2022-08-14T15:25:05;33.60;99.90
33903;DHT22;20194;50.950;5.346;2022-08-14T15:27:30;33.40;99.90
33903;DHT22;20194;50.950;5.346;2022-08-14T15:29:57;33.00;99.90
33903;DHT22;20194;50.950;5.346;2022-08-14T15:32:23;33.10;99.90
33903;DHT22;20194;50.950;5.346;2022-08-14T15:34:49;33.00;99.90
33903;DHT22;20194;50.950;5.346;2022-08-14T15:37:15;33.10;99.90
33903;DHT22;20194;50.950;5.346;2022-08-14T15:39:41;33.30;99.90
33903;DHT22;20194;50.950;5.346;2022-08-14T15:42:07;33.40;99.90
33903;DHT22;20194;50.950;5.346;2022-08-14T15:44:34;33.30;99.90
33903;DHT22;20194;50.950;5.346;2022-08-14T15:46:59;33.00;99.90
33903;DHT22;20194;50.950;5.346;2022-08-14T15:49:26;33.00;99.90
33903;DHT22;20194;50.950;5.346;2022-08-14T15:51:54;33.00;99.90
33903;DHT22;20194;50.950;5.346;2022-08-14T15:54:26;33.00;99.90
33903;DHT22;20194;50.950;5.346;2022-08-14T15:57:00;33.00;99.90
33903;DHT22;20194;50.950;5.346;2022-08-14T15:59:26;33.10;99.90
33903;DHT22;20194;50.950;5.346;2022-08-14T16:02:13;32.90;99.90
33903;DHT22;20194;50.950;5.346;2022-08-14T16:04:38;32.80;99.90
33903;DHT22;20194;50.950;5.346;2022-08-14T16:07:04;32.80;99.90
33903;DHT22;20194;50.950;5.346;2022-08-14T16:09:30;32.80;99.90